Terminal Aerodrome Forecast
Issued by NWS

Home | Current Version | Previous Version | Text Only | Print | Product List | Glossary On
Versions: 1 2 3 4 5 6 7 8 9 10 11 12 13 14 15 16 17 18 19 20 21
000
FTUS42 KMLB 242023 AAA
TAFFPR
TAF AMD
KFPR 242023Z 2420/2518 25014G22KT P6SM SCT060 SCT070 BKN100
     FM242200 25014G21KT P6SM FEW040 SCT080
     FM250300 26007KT P6SM SCT250
     FM251400 27011KT P6SM SKC=

USA.gov is the U.S. government's official web portal to all federal, state and local government web resources and services.